Time,TemperatureF,DewpointF,PressureIn,WindDirection,WindDirectionDegrees,WindSpeedMPH,WindSpeedGustMPH,Humidity,HourlyPrecipIn,Conditions,Clouds,dailyrainin,SolarRadiationWatts/m^2,SoftwareType,DateUTC
2013-07-13 00:05:00,57.9,50.0,30.07,ENE,63,0.0,2.0,76,0.00,,,0.00,0,weatherlink.com 1.10,2013-07-13 07:05:00,
2013-07-13 00:20:00,57.5,50.0,30.07,NE,46,0.0,3.0,77,0.00,,,0.00,0,weatherlink.com 1.10,2013-07-13 07:20:00,
2013-07-13 00:35:00,56.7,50.0,30.07,ENE,69,0.0,1.0,78,0.00,,,0.00,0,weatherlink.com 1.10,2013-07-13 07:35:00,
2013-07-13 00:50:00,55.4,49.0,30.07,East,92,0.0,2.0,80,0.00,,,0.00,0,weatherlink.com 1.10,2013-07-13 07:50:00,
2013-07-13 01:05:00,55.2,50.0,30.08,East,96,0.0,1.0,81,0.00,,,0.00,0,weatherlink.com 1.10,2013-07-13 08:05:00,
2013-07-13 01:20:00,55.4,50.0,30.08,East,96,0.0,1.0,81,0.00,,,0.00,0,weatherlink.com 1.10,2013-07-13 08:20:00,
2013-07-13 01:35:00,54.6,49.0,30.08,East,96,0.0,1.0,82,0.00,,,0.00,0,weatherlink.com 1.10,2013-07-13 08:35:00,
2013-07-13 01:50:00,54.4,49.0,30.08,East,96,0.0,1.0,82,0.00,,,0.00,0,weatherlink.com 1.10,2013-07-13 08:50:00,
2013-07-13 02:05:00,53.5,48.0,30.09,East,96,0.0,0.0,82,0.00,,,0.00,0,weatherlink.com 1.10,2013-07-13 09:05:00,
2013-07-13 02:20:00,53.6,49.0,30.09,East,96,0.0,0.0,83,0.00,,,0.00,0,weatherlink.com 1.10,2013-07-13 09:20:00,
2013-07-13 02:35:00,53.0,48.0,30.10,East,96,0.0,1.0,83,0.00,,,0.00,0,weatherlink.com 1.10,2013-07-13 09:35:00,
2013-07-13 02:50:00,52.6,48.0,30.10,East,96,0.0,0.0,83,0.00,,,0.00,0,weatherlink.com 1.10,2013-07-13 09:50:00,
2013-07-13 03:05:00,52.3,47.0,30.11,East,96,0.0,1.0,83,0.00,,,0.00,0,weatherlink.com 1.10,2013-07-13 10:05:00,
2013-07-13 03:20:00,52.1,47.0,30.11,East,96,0.0,0.0,83,0.00,,,0.00,0,weatherlink.com 1.10,2013-07-13 10:20:00,
2013-07-13 03:35:00,52.3,47.0,30.11,East,96,0.0,0.0,83,0.00,,,0.00,0,weatherlink.com 1.10,2013-07-13 10:35:00,
2013-07-13 03:50:00,52.1,47.0,30.11,East,96,0.0,1.0,83,0.00,,,0.00,0,weatherlink.com 1.10,2013-07-13 10:50:00,
2013-07-13 04:06:00,51.5,47.0,30.12,East,96,0.0,0.0,83,0.00,,,0.00,0,weatherlink.com 1.10,2013-07-13 11:06:00,
2013-07-13 04:21:00,51.6,47.0,30.12,East,96,0.0,1.0,83,0.00,,,0.00,0,weatherlink.com 1.10,2013-07-13 11:21:00,
2013-07-13 04:36:00,51.1,46.0,30.12,East,96,0.0,1.0,83,0.00,,,0.00,0,weatherlink.com 1.10,2013-07-13 11:36:00,
2013-07-13 04:51:00,51.2,46.0,30.12,East,96,0.0,0.0,83,0.00,,,0.00,0,weatherlink.com 1.10,2013-07-13 11:51:00,
2013-07-13 05:06:00,51.3,46.0,30.13,East,96,0.0,2.0,83,0.00,,,0.00,0,weatherlink.com 1.10,2013-07-13 12:06:00,
2013-07-13 05:21:00,51.2,46.0,30.13,East,96,0.0,1.0,83,0.00,,,0.00,0,weatherlink.com 1.10,2013-07-13 12:21:00,
2013-07-13 05:36:00,51.5,47.0,30.14,NE,49,0.0,3.0,83,0.00,,,0.00,9,weatherlink.com 1.10,2013-07-13 12:36:00,
2013-07-13 05:51:00,51.6,47.0,30.14,East,82,0.0,3.0,83,0.00,,,0.00,16,weatherlink.com 1.10,2013-07-13 12:51:00,
2013-07-13 06:06:00,51.8,47.0,30.14,NE,34,2.0,3.0,83,0.00,,,0.00,33,weatherlink.com 1.10,2013-07-13 13:06:00,
2013-07-13 06:21:00,52.6,48.0,30.15,NE,34,0.0,2.0,83,0.00,,,0.00,74,weatherlink.com 1.10,2013-07-13 13:21:00,
2013-07-13 06:36:00,53.7,48.0,30.15,NE,34,0.0,1.0,82,0.00,,,0.00,107,weatherlink.com 1.10,2013-07-13 13:36:00,
2013-07-13 06:51:00,54.9,50.0,30.16,NE,42,0.0,2.0,82,0.00,,,0.00,148,weatherlink.com 1.10,2013-07-13 13:51:00,
2013-07-13 07:06:00,55.9,50.0,30.16,NE,44,0.0,4.0,81,0.00,,,0.00,195,weatherlink.com 1.10,2013-07-13 14:06:00,
2013-07-13 07:21:00,57.3,51.0,30.17,NNE,32,2.0,3.0,79,0.00,,,0.00,232,weatherlink.com 1.10,2013-07-13 14:21:00,
2013-07-13 07:36:00,57.9,51.0,30.17,ENE,66,3.0,3.0,77,0.00,,,0.00,274,weatherlink.com 1.10,2013-07-13 14:36:00,
2013-07-13 07:51:00,59.1,51.0,30.17,NNE,32,1.0,3.0,75,0.00,,,0.00,315,weatherlink.com 1.10,2013-07-13 14:51:00,
2013-07-13 08:06:00,60.2,51.0,30.17,NNE,13,3.0,3.0,72,0.00,,,0.00,355,weatherlink.com 1.10,2013-07-13 15:06:00,
2013-07-13 08:21:00,60.9,51.0,30.18,NE,43,0.0,5.0,71,0.00,,,0.00,396,weatherlink.com 1.10,2013-07-13 15:21:00,
2013-07-13 08:36:00,61.5,50.0,30.18,ENE,69,1.0,5.0,66,0.00,,,0.00,436,weatherlink.com 1.10,2013-07-13 15:36:00,
2013-07-13 08:52:00,62.9,48.0,30.18,NNE,31,2.0,5.0,59,0.00,,,0.00,476,weatherlink.com 1.10,2013-07-13 15:52:00,
2013-07-13 09:07:00,64.0,49.0,30.18,ENE,74,0.0,5.0,58,0.00,,,0.00,515,weatherlink.com 1.10,2013-07-13 16:07:00,
2013-07-13 09:22:00,65.1,49.0,30.18,SSE,157,1.0,8.0,57,0.00,,,0.00,550,weatherlink.com 1.10,2013-07-13 16:22:00,
2013-07-13 09:37:00,65.2,48.0,30.19,SW,228,4.0,6.0,54,0.00,,,0.00,592,weatherlink.com 1.10,2013-07-13 16:37:00,
2013-07-13 09:52:00,65.7,48.0,30.19,South,186,1.0,6.0,54,0.00,,,0.00,624,weatherlink.com 1.10,2013-07-13 16:52:00,
2013-07-13 10:07:00,66.1,48.0,30.19,East,90,1.0,6.0,53,0.00,,,0.00,659,weatherlink.com 1.10,2013-07-13 17:07:00,
2013-07-13 10:22:00,67.3,49.0,30.19,South,176,3.0,8.0,52,0.00,,,0.00,689,weatherlink.com 1.10,2013-07-13 17:22:00,
2013-07-13 10:37:00,67.7,49.0,30.18,SE,134,0.0,5.0,52,0.00,,,0.00,721,weatherlink.com 1.10,2013-07-13 17:37:00,
2013-07-13 10:52:00,70.1,50.0,30.18,ENE,71,1.0,5.0,50,0.00,,,0.00,747,weatherlink.com 1.10,2013-07-13 17:52:00,
2013-07-13 11:07:00,71.0,52.0,30.18,NNE,17,3.0,5.0,51,0.00,,,0.00,779,weatherlink.com 1.10,2013-07-13 18:07:00,
2013-07-13 11:22:00,72.0,51.0,30.18,SW,229,3.0,5.0,47,0.00,,,0.00,798,weatherlink.com 1.10,2013-07-13 18:22:00,
2013-07-13 11:37:00,70.5,51.0,30.18,SSW,209,3.0,4.0,50,0.00,,,0.00,810,weatherlink.com 1.10,2013-07-13 18:37:00,
2013-07-13 11:52:00,72.2,51.0,30.18,WSW,241,4.0,6.0,48,0.00,,,0.00,831,weatherlink.com 1.10,2013-07-13 18:52:00,
2013-07-13 12:07:00,73.6,52.0,30.18,SSW,206,2.0,6.0,47,0.00,,,0.00,856,weatherlink.com 1.10,2013-07-13 19:07:00,
2013-07-13 12:22:00,73.3,51.0,30.18,SE,128,0.0,8.0,46,0.00,,,0.00,819,weatherlink.com 1.10,2013-07-13 19:22:00,
2013-07-13 12:37:00,75.2,53.0,30.17,SW,227,5.0,8.0,46,0.00,,,0.00,872,weatherlink.com 1.10,2013-07-13 19:37:00,
2013-07-13 12:52:00,75.5,52.0,30.17,NW,312,4.0,8.0,44,0.00,,,0.00,884,weatherlink.com 1.10,2013-07-13 19:52:00,
2013-07-13 13:08:00,76.3,52.0,30.17,West,271,3.0,7.0,43,0.00,,,0.00,888,weatherlink.com 1.10,2013-07-13 20:08:00,
2013-07-13 13:23:00,76.6,53.0,30.17,WSW,253,2.0,10.0,44,0.00,,,0.00,904,weatherlink.com 1.10,2013-07-13 20:23:00,
2013-07-13 13:38:00,76.6,53.0,30.16,West,273,2.0,9.0,44,0.00,,,0.00,854,weatherlink.com 1.10,2013-07-13 20:38:00,
2013-07-13 13:53:00,77.9,52.0,30.16,South,185,2.0,9.0,41,0.00,,,0.00,884,weatherlink.com 1.10,2013-07-13 20:53:00,
2013-07-13 14:08:00,77.8,53.0,30.16,SW,231,2.0,8.0,42,0.00,,,0.00,875,weatherlink.com 1.10,2013-07-13 21:08:00,
2013-07-13 14:23:00,78.3,53.0,30.16,SW,231,4.0,8.0,41,0.00,,,0.00,865,weatherlink.com 1.10,2013-07-13 21:23:00,
2013-07-13 14:38:00,78.3,53.0,30.15,West,265,4.0,11.0,42,0.00,,,0.00,870,weatherlink.com 1.10,2013-07-13 21:38:00,
2013-07-13 14:53:00,78.5,53.0,30.14,WSW,243,6.0,11.0,42,0.00,,,0.00,863,weatherlink.com 1.10,2013-07-13 21:53:00,
2013-07-13 15:08:00,79.4,54.0,30.14,WSW,255,5.0,13.0,41,0.00,,,0.00,824,weatherlink.com 1.10,2013-07-13 22:08:00,
2013-07-13 15:23:00,78.8,53.0,30.14,SW,215,6.0,11.0,41,0.00,,,0.00,791,weatherlink.com 1.10,2013-07-13 22:23:00,
2013-07-13 15:38:00,78.7,51.0,30.14,SW,222,4.0,12.0,38,0.00,,,0.00,765,weatherlink.com 1.10,2013-07-13 22:38:00,
2013-07-13 15:53:00,79.8,48.0,30.13,SSW,212,7.0,13.0,33,0.00,,,0.00,738,weatherlink.com 1.10,2013-07-13 22:53:00,
2013-07-13 16:08:00,78.4,49.0,30.13,WSW,237,4.0,14.0,35,0.00,,,0.00,712,weatherlink.com 1.10,2013-07-13 23:08:00,
2013-07-13 16:23:00,79.1,48.0,30.13,WSW,245,7.0,12.0,34,0.00,,,0.00,680,weatherlink.com 1.10,2013-07-13 23:23:00,
2013-07-13 16:38:00,79.6,49.0,30.12,WSW,242,6.0,11.0,34,0.00,,,0.00,642,weatherlink.com 1.10,2013-07-13 23:38:00,
2013-07-13 16:53:00,79.7,48.0,30.12,WSW,244,13.0,13.0,33,0.00,,,0.00,612,weatherlink.com 1.10,2013-07-13 23:53:00,
2013-07-13 17:08:00,79.3,49.0,30.12,SW,229,6.0,10.0,34,0.00,,,0.00,577,weatherlink.com 1.10,2013-07-14 00:08:00,
2013-07-13 17:23:00,78.6,48.0,30.11,West,263,4.0,13.0,34,0.00,,,0.00,540,weatherlink.com 1.10,2013-07-14 00:23:00,
2013-07-13 17:38:00,79.0,48.0,30.11,SW,218,8.0,11.0,34,0.00,,,0.00,499,weatherlink.com 1.10,2013-07-14 00:38:00,
2013-07-13 17:53:00,78.3,48.0,30.11,SW,232,7.0,11.0,35,0.00,,,0.00,457,weatherlink.com 1.10,2013-07-14 00:53:00,
2013-07-13 18:08:00,78.2,49.0,30.10,SW,232,5.0,12.0,36,0.00,,,0.00,415,weatherlink.com 1.10,2013-07-14 01:08:00,
2013-07-13 18:23:00,78.4,49.0,30.10,WSW,240,6.0,10.0,36,0.00,,,0.00,373,weatherlink.com 1.10,2013-07-14 01:23:00,
2013-07-13 18:38:00,77.7,49.0,30.10,WSW,254,9.0,10.0,37,0.00,,,0.00,332,weatherlink.com 1.10,2013-07-14 01:38:00,
2013-07-13 18:53:00,77.4,49.0,30.10,West,259,7.0,11.0,37,0.00,,,0.00,292,weatherlink.com 1.10,2013-07-14 01:53:00,
2013-07-13 19:08:00,77.4,49.0,30.10,SW,231,3.0,10.0,37,0.00,,,0.00,251,weatherlink.com 1.10,2013-07-14 02:08:00,
2013-07-13 19:23:00,76.6,48.0,30.10,NW,304,6.0,10.0,37,0.00,,,0.00,209,weatherlink.com 1.10,2013-07-14 02:23:00,
2013-07-13 19:38:00,76.2,49.0,30.09,WSW,255,5.0,8.0,38,0.00,,,0.00,162,weatherlink.com 1.10,2013-07-14 02:38:00,
2013-07-13 19:53:00,75.5,48.0,30.09,West,272,5.0,9.0,38,0.00,,,0.00,118,weatherlink.com 1.10,2013-07-14 02:53:00,
2013-07-13 20:08:00,74.6,49.0,30.09,WSW,250,3.0,8.0,40,0.00,,,0.00,79,weatherlink.com 1.10,2013-07-14 03:08:00,
2013-07-13 20:23:00,73.1,50.0,30.09,West,269,5.0,9.0,44,0.00,,,0.00,46,weatherlink.com 1.10,2013-07-14 03:23:00,
2013-07-13 20:38:00,71.8,50.0,30.09,West,269,3.0,9.0,46,0.00,,,0.00,18,weatherlink.com 1.10,2013-07-14 03:38:00,
2013-07-13 20:53:00,71.0,49.0,30.09,NW,307,1.0,7.0,46,0.00,,,0.00,12,weatherlink.com 1.10,2013-07-14 03:53:00,
2013-07-13 21:08:00,70.0,49.0,30.09,NW,320,2.0,5.0,48,0.00,,,0.00,5,weatherlink.com 1.10,2013-07-14 04:08:00,
2013-07-13 21:23:00,69.0,49.0,30.09,WNW,288,1.0,5.0,50,0.00,,,0.00,0,weatherlink.com 1.10,2013-07-14 04:23:00,
2013-07-13 21:38:00,67.4,51.0,30.10,NNW,348,0.0,2.0,57,0.00,,,0.00,0,weatherlink.com 1.10,2013-07-14 04:38:00,
2013-07-13 21:53:00,66.9,50.0,30.10,West,261,0.0,4.0,55,0.00,,,0.00,0,weatherlink.com 1.10,2013-07-14 04:53:00,
2013-07-13 22:08:00,66.5,51.0,30.10,WNW,292,4.0,5.0,57,0.00,,,0.00,0,weatherlink.com 1.10,2013-07-14 05:08:00,
2013-07-13 22:23:00,66.0,51.0,30.10,West,273,6.0,6.0,58,0.00,,,0.00,0,weatherlink.com 1.10,2013-07-14 05:23:00,
2013-07-13 22:38:00,65.7,52.0,30.10,WSW,249,2.0,5.0,61,0.00,,,0.00,0,weatherlink.com 1.10,2013-07-14 05:38:00,
2013-07-13 22:53:00,63.4,51.0,30.10,NNE,31,0.0,2.0,65,0.00,,,0.00,0,weatherlink.com 1.10,2013-07-14 05:53:00,
2013-07-13 23:08:00,62.6,52.0,30.10,NNE,31,0.0,1.0,68,0.00,,,0.00,0,weatherlink.com 1.10,2013-07-14 06:08:00,
2013-07-13 23:23:00,61.6,52.0,30.10,NNE,31,0.0,0.0,71,0.00,,,0.00,0,weatherlink.com 1.10,2013-07-14 06:23:00,
2013-07-13 23:38:00,60.4,52.0,30.10,NNE,31,0.0,0.0,73,0.00,,,0.00,0,weatherlink.com 1.10,2013-07-14 06:38:00,
2013-07-13 23:53:00,59.2,51.0,30.11,ENE,76,0.0,1.0,75,0.00,,,0.00,0,weatherlink.com 1.10,2013-07-14 06:53:00,